Terminal Aerodrome Forecast
Issued by NWS

Home | Current Version | Previous Version | Text Only | Print | Product List | Glossary On
Versions: 1 2 3 4 5 6 7 8 9 10 11 12 13 14 15 16 17 18 19 20 21
000
FTUS43 KTOP 011700
TAFFOE
TAF
KFOE 011728Z 0118/0218 32025G32KT 1SM -SN BR OVC010
     FM011900 32023G32KT 2SM -SN OVC015
     FM020100 33017G22KT P6SM OVC025
     FM020600 32015KT P6SM SCT025
     FM020900 31006KT P6SM SCT250=

USA.gov is the U.S. government's official web portal to all federal, state and local government web resources and services.